地図

経路データ

SID SEASON NUMBER BASIN SUBBASIN NAME ISO_TIME NATURE LAT LON WMO_WIND WMO_PRES WMO_AGENCY TRACK_TYPE DIST2LAND LANDFALL IFLAG USA_AGENCY USA_ATCF_ID USA_LAT USA_LON USA_RECORD USA_STATUS USA_WIND USA_PRES USA_SSHS USA_R34_NE USA_R34_SE USA_R34_SW USA_R34_NW USA_R50_NE USA_R50_SE USA_R50_SW USA_R50_NW USA_R64_NE USA_R64_SE USA_R64_SW USA_R64_NW USA_POCI USA_ROCI USA_RMW USA_EYE TOKYO_LAT TOKYO_LON TOKYO_GRADE TOKYO_WIND TOKYO_PRES TOKYO_R50_DIR TOKYO_R50_LONG TOKYO_R50_SHORT TOKYO_R30_DIR TOKYO_R30_LONG TOKYO_R30_SHORT TOKYO_LAND CMA_LAT CMA_LON CMA_CAT CMA_WIND CMA_PRES HKO_LAT HKO_LON HKO_CAT HKO_WIND HKO_PRES NEWDELHI_LAT NEWDELHI_LON NEWDELHI_GRADE NEWDELHI_WIND NEWDELHI_PRES NEWDELHI_CI NEWDELHI_DP NEWDELHI_POCI REUNION_LAT REUNION_LON REUNION_TYPE REUNION_WIND REUNION_PRES REUNION_TNUM REUNION_CI REUNION_RMW REUNION_R34_NE REUNION_R34_SE REUNION_R34_SW REUNION_R34_NW REUNION_R50_NE REUNION_R50_SE REUNION_R50_SW REUNION_R50_NW REUNION_R64_NE REUNION_R64_SE REUNION_R64_SW REUNION_R64_NW BOM_LAT BOM_LON BOM_TYPE BOM_WIND BOM_PRES BOM_TNUM BOM_CI BOM_RMW BOM_R34_NE BOM_R34_SE BOM_R34_SW BOM_R34_NW BOM_R50_NE BOM_R50_SE BOM_R50_SW BOM_R50_NW BOM_R64_NE BOM_R64_SE BOM_R64_SW BOM_R64_NW BOM_ROCI BOM_POCI BOM_EYE BOM_POS_METHOD BOM_PRES_METHOD NADI_LAT NADI_LON NADI_CAT NADI_WIND NADI_PRES WELLINGTON_LAT WELLINGTON_LON WELLINGTON_WIND WELLINGTON_PRES DS824_LAT DS824_LON DS824_STAGE DS824_WIND DS824_PRES TD9636_LAT TD9636_LON TD9636_STAGE TD9636_WIND TD9636_PRES TD9635_LAT TD9635_LON TD9635_WIND TD9635_PRES TD9635_ROCI NEUMANN_LAT NEUMANN_LON NEUMANN_CLASS NEUMANN_WIND NEUMANN_PRES MLC_LAT MLC_LON MLC_CLASS MLC_WIND MLC_PRES USA_GUST BOM_GUST BOM_GUST_PER REUNION_GUST REUNION_GUST_PER USA_SEAHGT USA_SEARAD_NE USA_SEARAD_SE USA_SEARAD_SW USA_SEARAD_NW STORM_SPEED STORM_DIR
1929153S26157 1929 34 SP EA NOT_NAMED 1929-06-01 12:00:00 NR -25.5000 157.400 main 405 376 __________O___ -1 -25.5000 157.400 7 6 265
1929153S26157 1929 34 SP EA NOT_NAMED 1929-06-01 15:00:00 NR -25.5239 157.094 main 376 346 __________P___ -1 -25.5239 157.094 7 6 265
1929153S26157 1929 34 SP EA NOT_NAMED 1929-06-01 18:00:00 NR -25.5480 156.790 main 346 318 __________P___ -1 -25.5480 156.790 7 5 265
1929153S26157 1929 34 SP EA NOT_NAMED 1929-06-01 21:00:00 NR -25.5731 156.491 main 318 289 __________P___ -1 -25.5731 156.491 7 5 264
1929153S26157 1929 34 SP EA NOT_NAMED 1929-06-02 00:00:00 NR -25.6000 156.200 main 289 259 __________O___ -1 -25.6000 156.200 7 5 264
1929153S26157 1929 34 SP EA NOT_NAMED 1929-06-02 03:00:00 NR -25.6305 155.919 main 259 243 __________P___ -1 -25.6305 155.919 7 5 262
1929153S26157 1929 34 SP EA NOT_NAMED 1929-06-02 06:00:00 NR -25.6699 155.655 main 243 215 __________P___ -1 -25.6699 155.655 7 5 258
1929153S26157 1929 34 SP EA NOT_NAMED 1929-06-02 09:00:00 NR -25.7243 155.413 main 215 201 __________P___ -1 -25.7243 155.413 7 4 252
1929153S26157 1929 34 SP EA NOT_NAMED 1929-06-02 12:00:00 NR -25.8000 155.200 main 201 173 __________O___ -1 -25.8000 155.200 7 5 260
1929153S26157 1929 34 SP EA NOT_NAMED 1929-06-02 15:00:00 NR -25.8163 154.843 main 163 144 __________P___ -1 -25.8163 154.843 7 6 264
1929153S26157 1929 34 SP EA NOT_NAMED 1929-06-02 18:00:00 NR -25.8663 154.541 main 137 128 __________P___ -1 -25.8663 154.541 7 4 243
1929153S26157 1929 34 SP EA NOT_NAMED 1929-06-02 21:00:00 NR -26.0081 154.418 main 129 129 __________P___ -1 -26.0081 154.418 7 4 173
1929153S26157 1929 34 SP EA NOT_NAMED 1929-06-03 00:00:00 NR -26.3000 154.600 main 149 149 __________O___ -1 -26.3000 154.600 7 11 143
1929153S26157 1929 34 SP EA NOT_NAMED 1929-06-03 03:00:00 NR -26.9006 155.176 main 199 199 __________P___ -1 -26.9006 155.176 7 19 135
1929153S26157 1929 34 SP EA NOT_NAMED 1929-06-03 06:00:00 NR -27.6297 156.076 main 254 251 __________P___ -1 -27.6297 156.076 7 23 129
1929153S26157 1929 34 SP EA NOT_NAMED 1929-06-03 09:00:00 NR -28.3436 157.215 main 352 352 __________P___ -1 -28.3436 157.215 7 25 121
1929153S26157 1929 34 SP EA NOT_NAMED 1929-06-03 12:00:00 NR -28.9000 158.500 main 476 476 __________O___ -1 -28.9000 158.500 7 25 110
1929153S26157 1929 34 SP EA NOT_NAMED 1929-06-03 15:00:00 NR -29.1944 159.845 main 602 602 __________P___ -1 -29.1944 159.845 7 24 99
1929153S26157 1929 34 SP MM NOT_NAMED 1929-06-03 18:00:00 NR -29.2622 161.219 main 738 738 __________P___ -1 -29.2622 161.219 7 24 90
1929153S26157 1929 34 SP MM NOT_NAMED 1929-06-03 21:00:00 NR -29.1738 162.608 main 859 788 __________P___ -1 -29.1738 162.608 7 24 84
1929153S26157 1929 34 SP MM NOT_NAMED 1929-06-04 00:00:00 NR -29.0000 164.000 main 785 __________O___ -1 -29.0000 164.000 7 25 82

デジタル台風データ・検索

IBTrACS Databaseについて

本データベースは、米国NOAAが公開する1842年以降の世界の熱帯低気圧のベストトラックデータアーカイブInternational Best Track Archive for Climate Stewardship (IBTrACS)を、ウェブで閲覧しやすい形式に変換したものです。

最終更新日:2021-10-08